Time;durP1;ratioP1;P1;durP2;ratioP2;P2;SDS_P1;SDS_P2;PMS_P1;PMS_P2;Temp;Humidity;BMP_temperature;BMP_pressure;BME280_temperature;BME280_humidity;BME280_pressure;Samples;Min_cycle;Max_cycle;Signal;HPM_P1;HPM_P2
2021/05/05 00:00:39;;;;;;;9.52;2.38;;;;;;;;;;6222320;23;20025;-88
2021/05/05 00:03:05;;;;;;;9.25;1.67;;;;;;;;;;6222784;23;20103;-88
2021/05/05 00:05:33;;;;;;;7.07;2.50;;;;;;;;;;6222583;23;20052;-87
2021/05/05 00:07:59;;;;;;;7.85;1.58;;;;;;;;;;6224697;23;20040;-87
2021/05/05 00:10:37;;;;;;;6.25;1.88;;;;;;;;;;6227131;23;20024;-87
2021/05/05 00:13:03;;;;;;;9.27;1.90;;;;;;;;;;6227269;23;20056;-86
2021/05/05 00:15:29;;;;;;;19.05;2.55;;;;;;;;;;6198598;23;20025;-85
2021/05/05 00:18:08;;;;;;;5.40;2.17;;;;;;;;;;6196463;23;20025;-85
2021/05/05 00:20:34;;;;;;;8.25;2.22;;;;;;;;;;6195671;23;20060;-83
2021/05/05 00:23:00;;;;;;;5.85;2.42;;;;;;;;;;6195349;23;20200;-84
2021/05/05 00:25:26;;;;;;;6.63;2.25;;;;;;;;;;6195773;23;20025;-84
2021/05/05 00:27:56;;;;;;;10.05;2.90;;;;;;;;;;6171212;23;20062;-84
2021/05/05 00:30:23;;;;;;;7.43;3.17;;;;;;;;;;6196752;23;20346;-84
2021/05/05 00:32:50;;;;;;;7.85;2.72;;;;;;;;;;6197057;23;20031;-84
2021/05/05 00:35:47;;;;;;;14.63;2.97;;;;;;;;;;6198522;23;20281;-85
2021/05/05 00:38:13;;;;;;;12.73;2.47;;;;;;;;;;6197856;23;20025;-85
2021/05/05 00:40:39;;;;;;;5.47;2.53;;;;;;;;;;6196284;23;20081;-85
2021/05/05 00:43:06;;;;;;;11.07;2.85;;;;;;;;;;6197644;23;20035;-86
2021/05/05 00:45:35;;;;;;;11.50;2.17;;;;;;;;;;6172725;23;20100;-86
2021/05/05 00:48:02;;;;;;;13.65;2.83;;;;;;;;;;6202211;23;20029;-86
2021/05/05 00:50:28;;;;;;;8.40;2.95;;;;;;;;;;6208929;23;20024;-86
2021/05/05 00:52:54;;;;;;;8.65;2.85;;;;;;;;;;6183874;23;20016;-85
2021/05/05 00:55:20;;;;;;;7.57;2.20;;;;;;;;;;6209724;23;20239;-86
2021/05/05 00:57:48;;;;;;;7.30;2.55;;;;;;;;;;6198505;23;20036;-87
2021/05/05 01:00:15;;;;;;;7.45;2.53;;;;;;;;;;6171255;23;20052;-87
2021/05/05 01:02:41;;;;;;;12.27;2.70;;;;;;;;;;6210419;23;20037;-86
2021/05/05 01:05:08;;;;;;;6.50;2.20;;;;;;;;;;6210367;23;20017;-87
2021/05/05 01:07:34;;;;;;;7.32;1.98;;;;;;;;;;6183913;23;20052;-87
2021/05/05 01:10:02;;;;;;;8.45;1.95;;;;;;;;;;6172490;23;20322;-87
2021/05/05 01:12:31;;;;;;;12.15;1.98;;;;;;;;;;6170031;23;20021;-87
2021/05/05 01:14:57;;;;;;;6.78;2.05;;;;;;;;;;6195290;23;20035;-87
2021/05/05 01:17:23;;;;;;;9.13;2.38;;;;;;;;;;6169562;23;20024;-87
2021/05/05 01:19:49;;;;;;;10.75;1.65;;;;;;;;;;6194022;23;20032;-88
2021/05/05 01:22:15;;;;;;;7.45;1.45;;;;;;;;;;6169205;23;20405;-87
2021/05/05 01:24:42;;;;;;;8.23;1.95;;;;;;;;;;6195873;23;20031;-87
2021/05/05 01:27:25;;;;;;;12.73;2.00;;;;;;;;;;6194911;23;20193;-87
2021/05/05 01:29:51;;;;;;;10.05;2.30;;;;;;;;;;6195775;23;20033;-87
2021/05/05 01:32:17;;;;;;;8.23;1.90;;;;;;;;;;6195987;23;20028;-87
2021/05/05 01:34:48;;;;;;;6.30;1.30;;;;;;;;;;6195552;23;20029;-87
2021/05/05 01:37:14;;;;;;;10.30;2.30;;;;;;;;;;6168938;23;20025;-87
2021/05/05 01:39:41;;;;;;;7.30;1.38;;;;;;;;;;6170431;23;20340;-87
2021/05/05 01:42:13;;;;;;;6.40;1.55;;;;;;;;;;6196605;23;20056;-87
2021/05/05 01:44:56;;;;;;;11.40;1.52;;;;;;;;;;6170765;23;20025;-87
2021/05/05 01:47:22;;;;;;;11.85;1.45;;;;;;;;;;6171304;23;20108;-86
2021/05/05 01:49:48;;;;;;;4.00;1.40;;;;;;;;;;6198000;23;20048;-87
2021/05/05 01:52:15;;;;;;;9.07;1.40;;;;;;;;;;6170634;23;20029;-87
2021/05/05 01:54:44;;;;;;;9.20;1.33;;;;;;;;;;6195536;23;20035;-87
2021/05/05 01:57:30;;;;;;;13.45;2.17;;;;;;;;;;6168830;23;20035;-86
2021/05/05 01:59:57;;;;;;;15.90;2.05;;;;;;;;;;6194564;23;20025;-87
2021/05/05 02:02:27;;;;;;;8.07;1.40;;;;;;;;;;6195418;23;20029;-87
2021/05/05 02:04:54;;;;;;;6.30;1.30;;;;;;;;;;6194512;23;20369;-87
2021/05/05 02:07:20;;;;;;;10.20;1.73;;;;;;;;;;6193824;23;20029;-87
2021/05/05 02:09:46;;;;;;;11.60;2.05;;;;;;;;;;6194021;23;20025;-86
2021/05/05 02:12:18;;;;;;;5.88;1.65;;;;;;;;;;6194681;23;20368;-87
2021/05/05 02:14:48;;;;;;;5.82;1.23;;;;;;;;;;6169714;23;20035;-86
2021/05/05 02:17:15;;;;;;;6.43;1.20;;;;;;;;;;6195737;23;20025;-87
2021/05/05 02:19:42;;;;;;;13.32;2.72;;;;;;;;;;6194174;23;20029;-86
2021/05/05 02:22:11;;;;;;;7.18;1.70;;;;;;;;;;6193930;23;20029;-86
2021/05/05 02:24:40;;;;;;;7.75;2.10;;;;;;;;;;6169330;23;20025;-86
2021/05/05 02:27:06;;;;;;;7.05;1.10;;;;;;;;;;6169066;23;20036;-88
2021/05/05 02:29:33;;;;;;;7.15;1.35;;;;;;;;;;6192965;23;20025;-87
2021/05/05 02:32:04;;;;;;;5.65;1.50;;;;;;;;;;6193010;23;20040;-87
2021/05/05 02:34:56;;;;;;;7.03;1.55;;;;;;;;;;6193367;23;20032;-87
2021/05/05 02:37:23;;;;;;;10.23;1.73;;;;;;;;;;6195342;23;20048;-87
2021/05/05 02:39:49;;;;;;;14.93;2.63;;;;;;;;;;6195595;23;20395;-87
2021/05/05 02:42:18;;;;;;;12.60;1.98;;;;;;;;;;6168878;23;20069;-86
2021/05/05 02:44:48;;;;;;;6.80;1.80;;;;;;;;;;6195996;23;20025;-87
2021/05/05 02:47:15;;;;;;;12.85;2.20;;;;;;;;;;6204938;23;20060;-86
2021/05/05 02:49:48;;;;;;;7.80;1.80;;;;;;;;;;6185719;23;20017;-86
2021/05/05 02:52:20;;;;;;;8.15;1.88;;;;;;;;;;6197370;23;20039;-87
2021/05/05 02:54:46;;;;;;;10.52;1.60;;;;;;;;;;6194116;23;20048;-87
2021/05/05 02:57:18;;;;;;;9.50;2.35;;;;;;;;;;6194303;23;20399;-87
2021/05/05 02:59:48;;;;;;;9.93;1.73;;;;;;;;;;6194641;23;20025;-88
2021/05/05 03:02:17;;;;;;;9.45;1.90;;;;;;;;;;6199526;23;20005;-87
2021/05/05 03:04:44;;;;;;;8.63;1.77;;;;;;;;;;6210762;23;20017;-86
2021/05/05 03:07:14;;;;;;;9.18;1.77;;;;;;;;;;6209370;23;20013;-87
2021/05/05 03:09:47;;;;;;;8.73;1.52;;;;;;;;;;6198449;23;20033;-87
2021/05/05 03:12:20;;;;;;;15.25;1.80;;;;;;;;;;6169131;23;20036;-87
2021/05/05 03:14:46;;;;;;;13.80;2.78;;;;;;;;;;6196659;23;20374;-85
2021/05/05 03:17:18;;;;;;;11.50;2.10;;;;;;;;;;6186068;23;20013;-86
2021/05/05 03:19:47;;;;;;;9.65;1.48;;;;;;;;;;6202188;23;20029;-87
2021/05/05 03:22:13;;;;;;;12.10;1.85;;;;;;;;;;6193595;23;20099;-87
2021/05/05 03:24:41;;;;;;;11.30;2.45;;;;;;;;;;6194149;23;20146;-87
2021/05/05 03:27:10;;;;;;;11.38;2.13;;;;;;;;;;6194644;23;20172;-88
2021/05/05 03:29:40;;;;;;;8.82;1.88;;;;;;;;;;6192742;23;20406;-88
2021/05/05 03:32:09;;;;;;;15.07;2.50;;;;;;;;;;6194660;23;20295;-88
2021/05/05 03:34:38;;;;;;;11.30;2.33;;;;;;;;;;6194212;23;20035;-88
2021/05/05 03:37:13;;;;;;;5.68;1.70;;;;;;;;;;6195206;23;20077;-88
2021/05/05 03:39:39;;;;;;;7.30;1.80;;;;;;;;;;6197028;23;20025;-87
2021/05/05 03:42:06;;;;;;;7.65;1.80;;;;;;;;;;6172450;23;20028;-88
2021/05/05 03:44:32;;;;;;;14.48;2.92;;;;;;;;;;6196108;23;20056;-87
2021/05/05 03:46:58;;;;;;;12.18;2.08;;;;;;;;;;6205988;23;20033;-89
2021/05/05 03:49:27;;;;;;;10.13;2.10;;;;;;;;;;6178887;23;20112;-89
2021/05/05 03:51:59;;;;;;;14.40;1.85;;;;;;;;;;6198146;23;20024;-88
2021/05/05 03:54:31;;;;;;;12.48;2.65;;;;;;;;;;6194263;23;20371;-88
2021/05/05 03:56:57;;;;;;;6.00;1.63;;;;;;;;;;6193914;23;20028;-87
2021/05/05 03:59:26;;;;;;;13.77;2.35;;;;;;;;;;6193675;23;20048;-88
2021/05/05 04:01:53;;;;;;;7.40;1.77;;;;;;;;;;6192023;23;20033;-89
2021/05/05 04:04:24;;;;;;;12.25;2.10;;;;;;;;;;6190076;23;20060;-88
2021/05/05 04:07:06;;;;;;;16.98;2.25;;;;;;;;;;6191410;23;20025;-88
2021/05/05 04:09:34;;;;;;;10.15;1.95;;;;;;;;;;6197758;23;20405;-88
2021/05/05 04:12:00;;;;;;;13.95;2.20;;;;;;;;;;6165781;23;20100;-87
2021/05/05 04:14:27;;;;;;;11.85;2.33;;;;;;;;;;6192429;23;20056;-87
2021/05/05 04:17:10;;;;;;;18.08;3.20;;;;;;;;;;6170860;23;20036;-88
2021/05/05 04:19:58;;;;;;;15.90;2.58;;;;;;;;;;6193557;23;20051;-88
2021/05/05 04:22:42;;;;;;;13.55;2.78;;;;;;;;;;6194587;23;20051;-88
2021/05/05 04:25:26;;;;;;;7.68;1.55;;;;;;;;;;6170195;23;20088;-88
2021/05/05 04:27:53;;;;;;;8.13;2.30;;;;;;;;;;6190268;23;20032;-88
2021/05/05 04:30:19;;;;;;;7.78;1.83;;;;;;;;;;6192747;23;20029;-88
2021/05/05 04:32:46;;;;;;;10.20;2.10;;;;;;;;;;6191059;23;20029;-88
2021/05/05 04:35:44;;;;;;;13.98;2.30;;;;;;;;;;6192992;23;20307;-88
2021/05/05 04:38:10;;;;;;;6.38;1.67;;;;;;;;;;6170299;23;20025;-88
2021/05/05 04:40:37;;;;;;;8.75;1.65;;;;;;;;;;6198671;23;20032;-89
2021/05/05 04:43:09;;;;;;;12.75;1.88;;;;;;;;;;6179775;23;20025;-89
2021/05/05 04:45:36;;;;;;;10.65;2.13;;;;;;;;;;6167152;23;20021;-88
2021/05/05 04:48:05;;;;;;;6.53;1.90;;;;;;;;;;6167705;23;20029;-88
2021/05/05 04:50:42;;;;;;;6.05;1.55;;;;;;;;;;6165468;23;20410;-87
2021/05/05 04:53:08;;;;;;;23.20;2.38;;;;;;;;;;6164654;23;20017;-87
2021/05/05 04:55:38;;;;;;;14.65;3.47;;;;;;;;;;6191612;23;20104;-87
2021/05/05 04:58:07;;;;;;;11.80;2.33;;;;;;;;;;6192549;23;20025;-88
2021/05/05 05:00:36;;;;;;;8.82;1.88;;;;;;;;;;6194953;23;20307;-88
2021/05/05 05:03:02;;;;;;;14.45;2.40;;;;;;;;;;6195053;23;20193;-89
2021/05/05 05:05:31;;;;;;;11.15;2.08;;;;;;;;;;6193809;23;20032;-88
2021/05/05 05:07:58;;;;;;;18.77;2.13;;;;;;;;;;6191176;23;20037;-87
2021/05/05 05:10:28;;;;;;;10.90;1.85;;;;;;;;;;6192323;23;20114;-88
2021/05/05 05:12:55;;;;;;;8.82;1.70;;;;;;;;;;6192607;23;20025;-88
2021/05/05 05:15:40;;;;;;;9.50;2.13;;;;;;;;;;6164502;23;20169;-87
2021/05/05 05:18:06;;;;;;;10.23;2.03;;;;;;;;;;6163735;23;20145;-88
2021/05/05 05:20:35;;;;;;;14.68;2.25;;;;;;;;;;6164290;23;20079;-87
2021/05/05 05:23:01;;;;;;;13.20;2.80;;;;;;;;;;6165880;23;20025;-87
2021/05/05 05:25:27;;;;;;;8.35;2.15;;;;;;;;;;6165251;23;20084;-88
2021/05/05 05:27:57;;;;;;;9.35;2.15;;;;;;;;;;6190690;23;20060;-88
2021/05/05 05:30:29;;;;;;;9.00;2.40;;;;;;;;;;6189822;23;20025;-88
2021/05/05 05:32:55;;;;;;;11.85;2.58;;;;;;;;;;6197886;23;20060;-88
2021/05/05 05:35:26;;;;;;;8.95;2.53;;;;;;;;;;6191864;23;20068;-87
2021/05/05 05:37:58;;;;;;;11.45;2.60;;;;;;;;;;6192595;23;20152;-87
2021/05/05 05:40:28;;;;;;;13.68;2.20;;;;;;;;;;6189716;23;20185;-88
2021/05/05 05:42:57;;;;;;;14.45;2.47;;;;;;;;;;6190626;23;20035;-88
2021/05/05 05:45:26;;;;;;;10.73;1.75;;;;;;;;;;6164308;23;20049;-88
2021/05/05 05:47:56;;;;;;;10.65;2.05;;;;;;;;;;6189868;23;20295;-88
2021/05/05 05:50:23;;;;;;;9.10;1.88;;;;;;;;;;6191132;23;20017;-87
2021/05/05 05:52:52;;;;;;;10.98;2.35;;;;;;;;;;6195909;23;20013;-88
2021/05/05 05:55:20;;;;;;;13.60;2.83;;;;;;;;;;6200445;23;20029;-88
2021/05/05 05:57:52;;;;;;;9.57;2.10;;;;;;;;;;6203114;23;20146;-87
2021/05/05 06:00:19;;;;;;;9.10;1.60;;;;;;;;;;6228325;23;20300;-88
2021/05/05 06:02:45;;;;;;;10.93;2.20;;;;;;;;;;6178354;23;20025;-89
2021/05/05 06:05:13;;;;;;;14.23;2.40;;;;;;;;;;6215948;23;20068;-87
2021/05/05 06:07:43;;;;;;;11.73;2.78;;;;;;;;;;6167311;23;20088;-87
2021/05/05 06:10:19;;;;;;;11.85;2.55;;;;;;;;;;6195570;23;20035;-87
2021/05/05 06:12:45;;;;;;;8.25;2.30;;;;;;;;;;6166543;23;20029;-88
2021/05/05 06:18:32;;;;;;;13.43;2.67;;;;;;;;;;6207912;23;20037;-87
2021/05/05 06:20:58;;;;;;;12.05;2.75;;;;;;;;;;6230174;23;20029;-87
2021/05/05 06:23:24;;;;;;;23.92;2.83;;;;;;;;;;6202251;23;20036;-88
2021/05/05 06:25:53;;;;;;;18.00;2.70;;;;;;;;;;6190327;23;20029;-86
2021/05/05 06:28:19;;;;;;;12.63;2.47;;;;;;;;;;6164249;23;20027;-87
2021/05/05 06:30:45;;;;;;;13.85;2.33;;;;;;;;;;6192400;23;20029;-85
2021/05/05 06:33:11;;;;;;;13.07;2.38;;;;;;;;;;6192054;23;20050;-85
2021/05/05 06:35:37;;;;;;;13.75;2.92;;;;;;;;;;6199096;23;20021;-83
2021/05/05 06:38:04;;;;;;;16.05;3.10;;;;;;;;;;6204904;23;20021;-83
2021/05/05 06:40:30;;;;;;;14.95;2.38;;;;;;;;;;6201142;23;20072;-85
2021/05/05 06:42:56;;;;;;;15.55;3.00;;;;;;;;;;6190512;23;20111;-86
2021/05/05 06:45:24;;;;;;;14.90;2.55;;;;;;;;;;6168556;23;20190;-85
2021/05/05 06:47:50;;;;;;;13.65;2.38;;;;;;;;;;6198415;23;20044;-87
2021/05/05 06:50:16;;;;;;;20.58;2.55;;;;;;;;;;6206209;23;20175;-87
2021/05/05 06:52:49;;;;;;;18.20;2.60;;;;;;;;;;6200095;23;20025;-86
2021/05/05 06:55:15;;;;;;;10.90;1.95;;;;;;;;;;6191873;23;20089;-87
2021/05/05 06:57:41;;;;;;;14.82;1.70;;;;;;;;;;6191229;23;20044;-87
2021/05/05 07:00:14;;;;;;;16.58;2.88;;;;;;;;;;6189576;23;20039;-87
2021/05/05 07:02:40;;;;;;;15.73;2.38;;;;;;;;;;6191257;23;20025;-88
2021/05/05 07:05:07;;;;;;;13.88;2.47;;;;;;;;;;6190582;23;20029;-88
2021/05/05 07:07:33;;;;;;;15.40;3.00;;;;;;;;;;6194448;23;20053;-87
2021/05/05 07:09:59;;;;;;;10.48;2.17;;;;;;;;;;6191704;23;20021;-88
2021/05/05 07:12:25;;;;;;;17.73;2.97;;;;;;;;;;6192937;23;20019;-87
2021/05/05 07:14:51;;;;;;;14.98;2.30;;;;;;;;;;6193224;23;20100;-88
2021/05/05 07:17:17;;;;;;;32.55;3.50;;;;;;;;;;6164935;23;20295;-89
2021/05/05 07:19:45;;;;;;;12.82;2.30;;;;;;;;;;6190085;23;20107;-87
2021/05/05 07:22:11;;;;;;;13.48;2.20;;;;;;;;;;6192424;23;20033;-87
2021/05/05 07:24:41;;;;;;;17.90;2.72;;;;;;;;;;6169637;23;20021;-88
2021/05/05 07:27:19;;;;;;;14.13;2.95;;;;;;;;;;6168833;23;20055;-89
2021/05/05 07:29:45;;;;;;;13.57;2.42;;;;;;;;;;6169187;23;20036;-88
2021/05/05 07:32:12;;;;;;;12.23;2.15;;;;;;;;;;6167630;23;20033;-88
2021/05/05 07:34:41;;;;;;;18.13;2.60;;;;;;;;;;6194425;23;20032;-87
2021/05/05 07:37:11;;;;;;;12.18;2.45;;;;;;;;;;6194577;23;20025;-87
2021/05/05 07:50:50;;;;;;;14.20;2.67;;;;;;;;;;6196020;23;20036;-88
2021/05/05 07:53:16;;;;;;;15.00;2.45;;;;;;;;;;6170033;23;20024;-87
2021/05/05 07:55:41;;;;;;;16.33;2.78;;;;;;;;;;6193993;23;20371;-88
2021/05/05 07:58:19;;;;;;;20.27;2.72;;;;;;;;;;6193237;23;20036;-88
2021/05/05 08:00:44;;;;;;;14.25;2.70;;;;;;;;;;6191379;23;20029;-87
2021/05/05 08:03:13;;;;;;;16.05;4.03;;;;;;;;;;6189915;23;20366;-88
2021/05/05 08:05:39;;;;;;;10.57;2.58;;;;;;;;;;6189262;23;20407;-88
2021/05/05 08:08:09;;;;;;;10.77;2.25;;;;;;;;;;6191452;23;20029;-87
2021/05/05 08:10:37;;;;;;;11.38;2.10;;;;;;;;;;6189875;23;20249;-87
2021/05/05 08:13:03;;;;;;;14.57;2.83;;;;;;;;;;6190931;23;20081;-88
2021/05/05 08:15:35;;;;;;;17.42;2.30;;;;;;;;;;6191231;23;20043;-87
2021/05/05 08:18:06;;;;;;;11.77;2.40;;;;;;;;;;6166538;23;20013;-87
2021/05/05 08:20:35;;;;;;;11.75;2.72;;;;;;;;;;6192728;23;20056;-88
2021/05/05 08:23:13;;;;;;;14.95;2.60;;;;;;;;;;6168205;23;20047;-87
2021/05/05 08:25:43;;;;;;;18.30;3.00;;;;;;;;;;6191636;23;20068;-87
2021/05/05 08:28:10;;;;;;;14.38;2.42;;;;;;;;;;6199588;23;20056;-87
2021/05/05 08:30:38;;;;;;;10.75;2.15;;;;;;;;;;6199462;23;20016;-87
2021/05/05 08:33:04;;;;;;;13.20;3.75;;;;;;;;;;6192978;23;20081;-89
2021/05/05 08:35:32;;;;;;;9.23;2.10;;;;;;;;;;6193968;23;20338;-89
2021/05/05 08:37:58;;;;;;;13.43;2.05;;;;;;;;;;6186727;23;20080;-86
2021/05/05 08:40:24;;;;;;;12.75;2.65;;;;;;;;;;6189314;23;20025;-88
2021/05/05 08:42:57;;;;;;;13.48;2.65;;;;;;;;;;6190788;23;20068;-87
2021/05/05 08:45:24;;;;;;;12.05;2.10;;;;;;;;;;6195797;23;20052;-88
2021/05/05 08:47:51;;;;;;;11.27;2.28;;;;;;;;;;6190770;23;20090;-88
2021/05/05 08:50:39;;;;;;;13.27;1.80;;;;;;;;;;6196218;23;20031;-88
2021/05/05 08:53:08;;;;;;;14.02;2.20;;;;;;;;;;6195001;23;20021;-87
2021/05/05 08:55:34;;;;;;;8.50;1.80;;;;;;;;;;6192726;23;20025;-88
2021/05/05 08:58:04;;;;;;;8.82;2.03;;;;;;;;;;6201417;23;20024;-87
2021/05/05 09:00:33;;;;;;;12.80;2.05;;;;;;;;;;6206343;23;20064;-88
2021/05/05 09:02:59;;;;;;;14.52;1.85;;;;;;;;;;6219680;23;20036;-87
2021/05/05 09:05:50;;;;;;;11.32;2.25;;;;;;;;;;6171586;23;20036;-87
2021/05/05 09:08:17;;;;;;;6.82;1.85;;;;;;;;;;6193553;23;20025;-87
2021/05/05 09:10:55;;;;;;;15.30;2.53;;;;;;;;;;6191231;23;20194;-86
2021/05/05 09:13:42;;;;;;;12.15;2.78;;;;;;;;;;6191370;23;20367;-88
2021/05/05 09:16:12;;;;;;;14.40;2.80;;;;;;;;;;6188889;23;20383;-87
2021/05/05 09:18:58;;;;;;;11.23;1.85;;;;;;;;;;6189050;23;20048;-88
2021/05/05 09:21:24;;;;;;;7.00;2.30;;;;;;;;;;6191412;23;20025;-89
2021/05/05 09:23:50;;;;;;;11.63;2.20;;;;;;;;;;6188925;23;20048;-88
2021/05/05 09:26:34;;;;;;;9.90;2.10;;;;;;;;;;6189492;23;20021;-88
2021/05/05 09:29:06;;;;;;;9.65;1.80;;;;;;;;;;6195218;23;20029;-87
2021/05/05 09:31:34;;;;;;;13.00;1.80;;;;;;;;;;6193202;23;20081;-89
2021/05/05 09:34:01;;;;;;;11.95;2.00;;;;;;;;;;6195518;23;20052;-87
2021/05/05 09:37:06;;;;;;;9.95;1.48;;;;;;;;;;6196967;23;20024;-89
2021/05/05 09:39:34;;;;;;;9.80;1.55;;;;;;;;;;6197441;23;20039;-88
2021/05/05 09:42:00;;;;;;;8.10;1.85;;;;;;;;;;6199820;23;20257;-88
2021/05/05 09:44:30;;;;;;;6.55;1.67;;;;;;;;;;6199276;23;20013;-88
2021/05/05 09:46:58;;;;;;;13.68;2.10;;;;;;;;;;6200325;23;20013;-88
2021/05/05 09:49:27;;;;;;;9.50;1.80;;;;;;;;;;6201458;23;20029;-88
2021/05/05 09:52:05;;;;;;;14.25;1.95;;;;;;;;;;6206073;23;20052;-91
2021/05/05 09:54:41;;;;;;;9.07;1.80;;;;;;;;;;6206092;23;20077;-89
2021/05/05 09:57:20;;;;;;;8.68;1.92;;;;;;;;;;6225808;23;20049;-85
2021/05/05 10:00:05;;;;;;;11.07;1.75;;;;;;;;;;6197242;23;20067;-84
2021/05/05 10:03:03;;;;;;;6.50;1.60;;;;;;;;;;6199785;23;20029;-84
2021/05/05 10:05:35;;;;;;;8.27;1.77;;;;;;;;;;6205838;23;20025;-83
2021/05/05 10:08:07;;;;;;;11.68;1.55;;;;;;;;;;6202481;23;20104;-85
2021/05/05 10:10:34;;;;;;;8.45;1.42;;;;;;;;;;6199294;23;20057;-86
2021/05/05 10:13:12;;;;;;;9.35;1.70;;;;;;;;;;6196401;23;20089;-87
2021/05/05 10:15:39;;;;;;;4.85;1.50;;;;;;;;;;6203230;23;20213;-84
2021/05/05 10:18:11;;;;;;;6.55;1.50;;;;;;;;;;6202149;23;20021;-83
2021/05/05 10:20:43;;;;;;;3.00;1.30;;;;;;;;;;6189814;23;20112;-83
2021/05/05 10:23:14;;;;;;;2.75;1.20;;;;;;;;;;6195079;23;20112;-85
2021/05/05 10:25:42;;;;;;;1.92;0.60;;;;;;;;;;6195125;23;20033;-85
2021/05/05 10:28:10;;;;;;;1.55;0.60;;;;;;;;;;6189647;23;20021;-86
2021/05/05 10:30:39;;;;;;;5.40;0.68;;;;;;;;;;6194382;23;20029;-87
2021/05/05 10:33:15;;;;;;;3.28;0.90;;;;;;;;;;6194727;23;20040;-86
2021/05/05 10:35:41;;;;;;;4.45;0.98;;;;;;;;;;6167437;23;20029;-87
2021/05/05 10:38:30;;;;;;;7.72;1.27;;;;;;;;;;6194962;23;20096;-87
2021/05/05 10:41:17;;;;;;;6.38;1.05;;;;;;;;;;6194544;23;20021;-87
2021/05/05 10:43:48;;;;;;;5.38;1.00;;;;;;;;;;6173818;23;20013;-86
2021/05/05 10:46:24;;;;;;;8.52;1.60;;;;;;;;;;6204935;23;20029;-87
2021/05/05 10:49:11;;;;;;;4.77;1.33;;;;;;;;;;6205502;23;20021;-86
2021/05/05 10:51:44;;;;;;;5.90;1.50;;;;;;;;;;6196717;23;20048;-88
2021/05/05 10:54:11;;;;;;;6.63;1.35;;;;;;;;;;6190841;23;20026;-87
2021/05/05 10:56:43;;;;;;;4.82;1.20;;;;;;;;;;6163331;23;20032;-86
2021/05/05 10:59:11;;;;;;;7.15;1.10;;;;;;;;;;6163909;23;20025;-85
2021/05/05 11:01:41;;;;;;;4.45;0.93;;;;;;;;;;6188018;23;20024;-84
2021/05/05 11:04:14;;;;;;;4.68;1.30;;;;;;;;;;6186887;23;20045;-80
2021/05/05 11:06:41;;;;;;;3.30;1.25;;;;;;;;;;6185601;23;20146;-80
2021/05/05 11:09:15;;;;;;;5.07;1.30;;;;;;;;;;6186507;23;20035;-83
2021/05/05 11:11:45;;;;;;;7.55;1.58;;;;;;;;;;6187913;23;20209;-84
2021/05/05 11:14:24;;;;;;;3.58;1.23;;;;;;;;;;6165584;23;20389;-82
2021/05/05 11:17:00;;;;;;;4.43;1.48;;;;;;;;;;6187852;23;20467;-84
2021/05/05 11:19:41;;;;;;;3.35;1.58;;;;;;;;;;6161672;23;20335;-82
2021/05/05 11:22:19;;;;;;;3.30;1.00;;;;;;;;;;6187310;23;20025;-83
2021/05/05 11:24:52;;;;;;;4.32;1.30;;;;;;;;;;6185442;23;20029;-83
2021/05/05 11:27:41;;;;;;;4.53;1.25;;;;;;;;;;6192629;23;20194;-83
2021/05/05 11:30:45;;;;;;;5.53;1.38;;;;;;;;;;6165579;23;20090;-84
2021/05/05 11:33:11;;;;;;;4.28;1.10;;;;;;;;;;6174357;23;20085;-82
2021/05/05 11:35:44;;;;;;;2.40;1.00;;;;;;;;;;6175840;23;20077;-82
2021/05/05 11:38:19;;;;;;;5.43;1.33;;;;;;;;;;6174649;23;20015;-84
2021/05/05 11:40:55;;;;;;;3.78;1.00;;;;;;;;;;6168892;23;20088;-85
2021/05/05 11:43:21;;;;;;;3.88;1.05;;;;;;;;;;6132919;23;20037;-85
2021/05/05 11:45:52;;;;;;;4.45;0.80;;;;;;;;;;6158372;23;20055;-82
2021/05/05 11:48:38;;;;;;;6.15;1.20;;;;;;;;;;6154142;23;20262;-81
2021/05/05 11:51:16;;;;;;;3.85;1.05;;;;;;;;;;6156342;23;20218;-82
2021/05/05 11:53:42;;;;;;;1.80;0.77;;;;;;;;;;6152379;23;20289;-83
2021/05/05 11:56:16;;;;;;;2.20;0.90;;;;;;;;;;6157858;23;20052;-81
2021/05/05 11:58:42;;;;;;;4.18;1.10;;;;;;;;;;6158017;23;20398;-82
2021/05/05 12:01:08;;;;;;;1.58;0.63;;;;;;;;;;6143158;23;20028;-83
2021/05/05 12:03:35;;;;;;;6.30;0.90;;;;;;;;;;6173473;23;20014;-84
2021/05/05 12:06:07;;;;;;;4.22;1.00;;;;;;;;;;6156671;23;20025;-83
2021/05/05 12:08:35;;;;;;;5.05;1.10;;;;;;;;;;6157914;23;20029;-87
2021/05/05 12:11:12;;;;;;;4.93;1.00;;;;;;;;;;6161731;23;20030;-87
2021/05/05 12:13:47;;;;;;;5.38;1.23;;;;;;;;;;6156334;23;20119;-88
2021/05/05 12:16:18;;;;;;;7.03;1.20;;;;;;;;;;6152827;23;20044;-84
2021/05/05 12:18:46;;;;;;;6.60;1.50;;;;;;;;;;6153583;23;20025;-85
2021/05/05 12:21:13;;;;;;;5.95;1.20;;;;;;;;;;6155071;23;20134;-82
2021/05/05 12:23:54;;;;;;;12.15;1.80;;;;;;;;;;6131676;23;20228;-84
2021/05/05 12:26:31;;;;;;;10.40;1.75;;;;;;;;;;6163674;23;20036;-85
2021/05/05 12:28:58;;;;;;;9.18;1.88;;;;;;;;;;6137941;23;20030;-87
2021/05/05 12:31:26;;;;;;;6.07;1.60;;;;;;;;;;6136535;23;20399;-86
2021/05/05 12:34:11;;;;;;;16.17;2.67;;;;;;;;;;6185001;23;20196;-86
2021/05/05 12:36:42;;;;;;;11.50;2.10;;;;;;;;;;6190931;23;20029;-86
2021/05/05 12:39:16;;;;;;;8.40;1.40;;;;;;;;;;6194265;23;20095;-86
2021/05/05 12:41:47;;;;;;;5.03;1.60;;;;;;;;;;6193292;23;20024;-86
2021/05/05 12:44:14;;;;;;;7.47;1.40;;;;;;;;;;6169476;23;20028;-86
2021/05/05 12:46:58;;;;;;;12.63;1.90;;;;;;;;;;6193807;23;20029;-86
2021/05/05 12:49:47;;;;;;;9.90;1.70;;;;;;;;;;6168015;23;20083;-85
2021/05/05 12:52:27;;;;;;;10.07;2.03;;;;;;;;;;6190019;23;20146;-86
2021/05/05 12:54:55;;;;;;;8.55;1.92;;;;;;;;;;6166261;23;20104;-85
2021/05/05 12:57:21;;;;;;;10.77;1.60;;;;;;;;;;6154585;23;20044;-82
2021/05/05 12:59:49;;;;;;;8.98;1.52;;;;;;;;;;6181443;23;20025;-82
2021/05/05 13:02:24;;;;;;;7.30;1.90;;;;;;;;;;6154914;23;20029;-83
2021/05/05 13:05:04;;;;;;;10.15;2.05;;;;;;;;;;6183524;23;20398;-82
2021/05/05 13:07:33;;;;;;;9.38;2.05;;;;;;;;;;6188946;23;20059;-84
2021/05/05 13:10:01;;;;;;;10.73;2.63;;;;;;;;;;6188532;23;20085;-83
2021/05/05 13:12:31;;;;;;;11.98;2.10;;;;;;;;;;6162431;23;20029;-86
2021/05/05 13:15:17;;;;;;;13.52;2.00;;;;;;;;;;6189656;23;20024;-85
2021/05/05 13:30:13;;;;;;;8.20;1.80;;;;;;;;;;6185597;23;20035;-86
2021/05/05 13:32:39;;;;;;;10.55;4.07;;;;;;;;;;6186788;23;20076;-86
2021/05/05 13:35:23;;;;;;;11.50;2.72;;;;;;;;;;6200972;23;20057;-86
2021/05/05 13:38:12;;;;;;;13.95;2.38;;;;;;;;;;6199864;23;20013;-86
2021/05/05 13:40:41;;;;;;;14.35;1.80;;;;;;;;;;6180092;23;20025;-85
2021/05/05 13:43:13;;;;;;;7.88;1.80;;;;;;;;;;6185742;23;20036;-86
2021/05/05 13:45:40;;;;;;;9.77;1.60;;;;;;;;;;6190518;23;20036;-87
2021/05/05 13:51:15;;;;;;;11.18;1.60;;;;;;;;;;6171618;23;20086;-87
2021/05/05 13:53:46;;;;;;;7.57;1.90;;;;;;;;;;6184083;23;20156;-86
2021/05/05 13:56:31;;;;;;;8.55;2.05;;;;;;;;;;6185601;23;20028;-85
2021/05/05 13:59:00;;;;;;;7.82;1.50;;;;;;;;;;6184294;23;20204;-83
2021/05/05 14:01:26;;;;;;;8.05;2.00;;;;;;;;;;6184140;23;20079;-84
2021/05/05 14:03:59;;;;;;;7.18;2.00;;;;;;;;;;6182933;23;20036;-84
2021/05/05 14:06:27;;;;;;;11.80;1.63;;;;;;;;;;6188976;23;20393;-85
2021/05/05 14:08:53;;;;;;;9.43;1.90;;;;;;;;;;6187611;23;20033;-86
2021/05/05 14:11:19;;;;;;;14.10;2.10;;;;;;;;;;6187774;23;20039;-85
2021/05/05 14:14:01;;;;;;;12.77;1.73;;;;;;;;;;6186348;23;20264;-85
2021/05/05 14:16:27;;;;;;;12.50;2.28;;;;;;;;;;6184827;23;20056;-86
2021/05/05 14:18:53;;;;;;;6.65;1.85;;;;;;;;;;6183294;23;20025;-84
2021/05/05 14:21:22;;;;;;;9.80;1.67;;;;;;;;;;6181377;23;20025;-84
2021/05/05 14:23:48;;;;;;;10.70;1.45;;;;;;;;;;6182468;23;20021;-84
2021/05/05 14:26:16;;;;;;;7.43;1.40;;;;;;;;;;6181095;23;20490;-82
2021/05/05 14:28:53;;;;;;;5.60;1.23;;;;;;;;;;6179919;23;20191;-85
2021/05/05 14:31:19;;;;;;;6.10;1.38;;;;;;;;;;6180375;23;20025;-85
2021/05/05 14:33:48;;;;;;;12.73;1.58;;;;;;;;;;6181142;23;20060;-84
2021/05/05 14:36:23;;;;;;;8.35;1.48;;;;;;;;;;6182980;23;20373;-85
2021/05/05 14:38:50;;;;;;;8.30;1.93;;;;;;;;;;6182311;23;20029;-85
2021/05/05 14:44:14;;;;;;;8.98;1.60;;;;;;;;;;6181843;23;20021;-86
2021/05/05 14:49:08;;;;;;;6.25;1.50;;;;;;;;;;6188574;23;20073;-86
2021/05/05 14:51:50;;;;;;;7.53;1.63;;;;;;;;;;6186414;23;20029;-86
2021/05/05 14:54:19;;;;;;;14.02;2.30;;;;;;;;;;6184290;23;20284;-87
2021/05/05 14:56:45;;;;;;;14.50;3.13;;;;;;;;;;6186331;23;20089;-86
2021/05/05 14:59:14;;;;;;;14.38;2.83;;;;;;;;;;6191927;23;20139;-87
2021/05/05 15:01:40;;;;;;;11.85;2.28;;;;;;;;;;6202502;23;20104;-86
2021/05/05 15:04:06;;;;;;;16.00;3.28;;;;;;;;;;6194505;23;20024;-88
2021/05/05 15:06:36;;;;;;;10.77;2.03;;;;;;;;;;6186933;23;20115;-87
2021/05/05 15:14:52;;;;;;;14.63;2.42;;;;;;;;;;6182497;23;20033;-89
2021/05/05 15:29:18;;;;;;;17.88;2.50;;;;;;;;;;6192042;23;20067;-88
2021/05/05 15:34:54;;;;;;;12.77;2.60;;;;;;;;;;6198822;23;20029;-89
2021/05/05 15:37:30;;;;;;;16.17;2.83;;;;;;;;;;6186978;23;20033;-88
2021/05/05 15:40:17;;;;;;;14.25;3.10;;;;;;;;;;6183764;23;20075;-90
2021/05/05 15:42:48;;;;;;;20.95;3.25;;;;;;;;;;6183929;23;20347;-88
2021/05/05 15:45:23;;;;;;;12.07;3.00;;;;;;;;;;6189718;23;20013;-88
2021/05/05 15:47:53;;;;;;;18.50;2.90;;;;;;;;;;6187843;23;20036;-89
2021/05/05 15:50:19;;;;;;;22.00;3.70;;;;;;;;;;6190285;23;20052;-88
2021/05/05 15:52:52;;;;;;;17.67;2.70;;;;;;;;;;6159388;23;20442;-87